PDT,Max TemperatureF,Mean TemperatureF,Min TemperatureF,Max Dew PointF,MeanDew PointF,Min DewpointF,Max Humidity, Mean Humidity, Min Humidity, Max Sea Level PressureIn, Mean Sea Level PressureIn, Min Sea Level PressureIn, Max VisibilityMiles, Mean VisibilityMiles, Min VisibilityMiles, Max Wind SpeedMPH, Mean Wind SpeedMPH, Max Gust SpeedMPH,PrecipitationIn, CloudCover, Events, WindDirDegrees
2013-4-1,67,62,56,54,52,50,80,69,58,30.19,30.14,30.10,10,10,7,16,7,20,0.00,6,,240
2013-4-2,70,60,50,53,50,46,83,67,51,30.12,30.08,30.03,10,10,8,14,5,17,0.00,1,,189
2013-4-3,72,63,54,54,52,48,86,68,49,30.11,30.06,30.02,9,6,3,13,6,18,0.00,4,,293
2013-4-4,71,65,58,55,53,51,86,70,53,30.15,30.09,30.03,10,8,5,23,7,28,0.00,7,,256
2013-4-5,70,63,55,55,53,50,83,71,59,30.12,30.07,30.01,10,10,8,16,5,21,0.00,4,,174
2013-4-6,72,61,50,53,51,46,86,70,53,30.12,30.04,29.97,10,10,9,16,5,20,0.00,1,,147
2013-4-7,76,63,50,55,50,47,83,64,44,29.99,29.91,29.80,10,10,8,15,6,20,0.00,0,,165
2013-4-8,74,63,51,49,40,27,83,50,17,29.86,29.75,29.69,10,10,9,38,16,44,0.00,0,,280
2013-4-9,73,60,46,47,39,22,71,44,16,30.02,29.94,29.87,10,10,9,25,7,30,0.00,0,,264
2013-4-10,83,65,46,49,38,28,67,38,9,30.12,30.05,30.01,10,10,9,18,5,23,0.00,0,,260
2013-4-11,71,60,49,50,47,40,80,62,44,30.00,29.91,29.81,10,9,7,17,5,22,0.00,0,,262
2013-4-12,68,61,53,52,50,46,86,72,58,29.91,29.86,29.81,9,7,5,13,5,18,0.00,4,,255
2013-4-13,62,59,56,54,52,51,86,79,72,29.95,29.90,29.85,10,7,2,12,4,14,0.00,8,,254
2013-4-14,65,61,57,54,51,48,86,71,56,29.91,29.87,29.84,10,7,3,12,4,15,0.00,8,,252
2013-4-15,66,59,52,52,48,42,80,68,55,29.93,29.88,29.84,10,10,7,16,8,20,0.00,6,,245
2013-4-16,67,56,45,44,41,37,77,56,34,30.04,29.96,29.89,10,10,10,26,7,32,0.00,1,,207
2013-4-17,73,59,45,44,38,23,76,46,16,30.16,30.11,30.06,10,10,10,24,7,30,0.00,0,,263
2013-4-18,82,66,50,41,22,7,55,31,6,30.24,30.19,30.16,10,10,6,30,13,36,0.00,0,,26
2013-4-19,81,64,47,49,38,26,72,44,15,30.19,30.12,30.01,10,9,2,13,4,17,0.00,0,,245
2013-4-20,81,66,51,52,47,41,77,54,30,30.01,29.96,29.91,10,10,6,15,4,18,0.00,0,,249
2013-4-21,78,66,53,56,52,44,84,62,39,30.03,29.99,29.94,10,9,4,14,5,18,0.00,2,,233
2013-4-22,69,65,60,54,52,51,78,67,55,30.03,29.98,29.90,10,9,7,14,5,18,0.00,6,,214
2013-4-23,70,64,58,52,51,48,75,64,52,29.99,29.95,29.91,10,10,8,14,5,18,0.00,4,,214
2013-4-24,63,61,58,54,52,50,80,74,67,30.02,29.95,29.90,10,8,4,13,3,15,0.00,8,,244
2013-4-25,73,64,55,51,48,44,77,58,38,30.14,30.06,29.99,10,10,9,15,5,20,0.00,2,,225
2013-4-26,74,63,52,52,49,44,80,62,44,30.18,30.16,30.14,10,10,8,14,5,18,0.00,0,,246
2013-4-27,73,63,52,54,51,46,89,69,49,30.17,30.11,30.02,10,7,0,13,4,18,0.00,1,Fog,252
2013-4-28,71,64,57,55,54,52,86,72,57,30.04,29.96,29.86,10,6,2,12,4,16,0.00,6,,228
2013-4-29,70,64,57,56,54,51,86,74,61,29.93,29.88,29.82,9,6,2,14,6,18,0.00,8,,249
2013-4-30,69,65,60,55,53,52,84,69,53,29.91,29.86,29.82,10,8,5,17,5,21,0.00,8,,245